createdAt,value
2023-05-11T00:01:12.977Z,18.57
2023-05-11T00:03:39.652Z,17.50
2023-05-11T00:06:06.559Z,17.50
2023-05-11T00:08:33.302Z,17.37
2023-05-11T00:11:03.024Z,17.57
2023-05-11T00:13:29.762Z,18.50
2023-05-11T00:15:56.710Z,19.97
2023-05-11T00:18:23.577Z,18.40
2023-05-11T00:20:50.345Z,17.70
2023-05-11T00:23:17.122Z,20.27
2023-05-11T00:25:43.886Z,21.33
2023-05-11T00:28:14.149Z,17.30
2023-05-11T00:30:41.429Z,19.53
2023-05-11T00:33:08.110Z,20.63
2023-05-11T00:35:34.828Z,20.73
2023-05-11T00:38:01.532Z,22.17
2023-05-11T00:40:28.536Z,21.80
2023-05-11T00:42:55.386Z,22.37
2023-05-11T00:45:22.052Z,20.60
2023-05-11T00:47:48.772Z,20.80
2023-05-11T00:50:15.980Z,20.00
2023-05-11T00:52:43.058Z,21.50
2023-05-11T00:55:10.379Z,20.10
2023-05-11T00:57:38.811Z,20.20
2023-05-11T01:00:07.229Z,21.20
2023-05-11T01:02:34.248Z,22.93
2023-05-11T01:05:03.602Z,21.77
2023-05-11T01:07:37.233Z,22.63
2023-05-11T01:10:13.958Z,22.47
2023-05-11T01:13:04.938Z,22.00
2023-05-11T01:15:42.223Z,20.57
2023-05-11T01:18:08.863Z,25.00
2023-05-11T01:20:36.077Z,21.17
2023-05-11T01:23:14.374Z,27.07
2023-05-11T01:26:04.312Z,24.17
2023-05-11T01:29:10.752Z,24.60
2023-05-11T01:31:42.496Z,24.80
2023-05-11T01:34:19.383Z,29.20
2023-05-11T01:36:58.555Z,26.03
2023-05-11T01:39:32.261Z,26.70
2023-05-11T01:42:06.685Z,27.20
2023-05-11T01:44:35.544Z,28.20
2023-05-11T01:47:03.555Z,26.27
2023-05-11T01:49:35.304Z,29.47
2023-05-11T01:52:04.102Z,29.67
2023-05-11T01:54:32.089Z,30.23
2023-05-11T01:57:00.757Z,31.23
2023-05-11T01:59:29.014Z,29.67
2023-05-11T02:01:58.017Z,30.87
2023-05-11T02:04:26.668Z,31.27
2023-05-11T02:06:55.190Z,30.33
2023-05-11T02:09:23.097Z,32.73
2023-05-11T02:11:51.101Z,37.50
2023-05-11T02:14:19.957Z,30.40
2023-05-11T02:16:48.054Z,31.83
2023-05-11T02:19:15.698Z,29.87
2023-05-11T02:21:46.188Z,30.77
2023-05-11T02:24:13.213Z,29.63
2023-05-11T02:26:39.940Z,32.23
2023-05-11T02:29:06.708Z,35.67
2023-05-11T02:31:40.300Z,28.33
2023-05-11T02:34:19.051Z,29.10
2023-05-11T02:36:48.348Z,33.37
2023-05-11T02:39:21.969Z,28.13
2023-05-11T02:41:57.076Z,33.27
2023-05-11T02:44:31.027Z,27.43
2023-05-11T02:47:01.526Z,28.60
2023-05-11T02:49:30.914Z,25.93
2023-05-11T02:52:01.158Z,34.03
2023-05-11T02:54:29.360Z,30.53
2023-05-11T02:56:56.728Z,30.50
2023-05-11T02:59:24.837Z,26.83
2023-05-11T03:01:53.019Z,29.07
2023-05-11T03:04:19.770Z,27.23
2023-05-11T03:06:46.700Z,24.90
2023-05-11T03:09:13.740Z,29.47
2023-05-11T03:11:41.245Z,27.07
2023-05-11T03:14:08.343Z,32.20
2023-05-11T03:16:37.510Z,33.73
2023-05-11T03:19:09.321Z,28.27
2023-05-11T03:21:37.665Z,33.23
2023-05-11T03:24:07.139Z,35.70
2023-05-11T03:26:35.240Z,35.63
2023-05-11T03:29:03.194Z,36.33
2023-05-11T03:31:30.038Z,37.67
2023-05-11T03:33:57.527Z,40.47
2023-05-11T03:36:25.515Z,39.10
2023-05-11T03:38:56.528Z,41.57
2023-05-11T03:41:25.936Z,43.53
2023-05-11T03:43:54.459Z,50.27
2023-05-11T03:46:22.793Z,54.63
2023-05-11T03:48:50.735Z,61.27
2023-05-11T03:51:17.524Z,56.77
2023-05-11T03:53:44.349Z,62.00
2023-05-11T03:56:11.362Z,57.30
2023-05-11T03:58:40.510Z,45.50
2023-05-11T04:01:10.977Z,50.63
2023-05-11T04:03:51.245Z,55.03
2023-05-11T04:06:19.133Z,52.93
2023-05-11T04:08:46.018Z,53.27
2023-05-11T04:11:12.680Z,55.07
2023-05-11T04:13:39.423Z,50.57
2023-05-11T04:16:06.637Z,58.83
2023-05-11T04:18:33.487Z,57.80
2023-05-11T04:21:00.300Z,55.00
2023-05-11T04:23:26.971Z,56.33
2023-05-11T04:25:57.392Z,52.97
2023-05-11T04:28:27.574Z,46.47
2023-05-11T04:30:55.648Z,50.30
2023-05-11T04:33:23.117Z,47.53
2023-05-11T04:35:54.408Z,52.53
2023-05-11T04:38:22.233Z,48.30
2023-05-11T04:40:50.554Z,48.37
2023-05-11T04:43:18.100Z,60.03
2023-05-11T04:45:49.378Z,46.77
2023-05-11T04:48:18.091Z,46.03
2023-05-11T04:50:47.100Z,52.43
2023-05-11T04:53:13.834Z,50.93
2023-05-11T04:55:40.778Z,45.43
2023-05-11T04:58:07.420Z,44.87
2023-05-11T05:00:34.185Z,45.73
2023-05-11T05:03:01.022Z,43.13
2023-05-11T05:05:27.777Z,51.93
2023-05-11T05:07:54.518Z,46.57
2023-05-11T05:10:21.920Z,41.47
2023-05-11T05:12:48.912Z,45.70
2023-05-11T05:15:15.611Z,55.87
2023-05-11T05:17:42.240Z,40.40
2023-05-11T05:20:09.254Z,51.13
2023-05-11T05:22:35.901Z,39.67
2023-05-11T05:25:02.586Z,48.13
2023-05-11T05:27:29.249Z,53.17
2023-05-11T05:29:58.619Z,45.10
2023-05-11T05:32:25.455Z,56.93
2023-05-11T05:34:52.473Z,44.07
2023-05-11T05:37:19.232Z,48.47
2023-05-11T05:39:48.268Z,47.57
2023-05-11T05:42:15.162Z,46.83
2023-05-11T05:44:41.925Z,43.47
2023-05-11T05:47:08.593Z,49.60
2023-05-11T05:49:35.362Z,45.23
2023-05-11T05:52:02.139Z,44.60
2023-05-11T05:54:28.934Z,44.17
2023-05-11T05:56:55.613Z,45.60
2023-05-11T05:59:24.263Z,42.20
2023-05-11T06:01:51.607Z,40.13
2023-05-11T06:04:18.638Z,41.20
2023-05-11T06:06:46.463Z,41.33
2023-05-11T06:09:13.824Z,39.43
2023-05-11T06:11:41.116Z,38.40
2023-05-11T06:14:07.743Z,35.70
2023-05-11T06:16:34.596Z,36.43
2023-05-11T06:19:01.392Z,43.20
2023-05-11T06:21:28.188Z,31.37
2023-05-11T06:23:54.866Z,34.87
2023-05-11T06:26:24.970Z,30.87
2023-05-11T06:28:52.871Z,37.33
2023-05-11T06:31:19.856Z,29.67
2023-05-11T06:33:46.561Z,31.17
2023-05-11T06:36:13.240Z,33.53
2023-05-11T06:38:39.919Z,31.42
2023-05-11T06:41:07.480Z,27.00
2023-05-11T06:43:34.242Z,29.47
2023-05-11T06:46:00.922Z,28.90
2023-05-11T06:48:29.801Z,27.77
2023-05-11T06:50:57.152Z,32.90
2023-05-11T06:53:23.826Z,27.03
2023-05-11T06:55:50.772Z,28.30
2023-05-11T06:58:20.470Z,33.27
2023-05-11T07:00:47.499Z,32.67
2023-05-11T07:03:14.314Z,29.60
2023-05-11T07:05:41.181Z,29.37
2023-05-11T07:08:07.958Z,27.73
2023-05-11T07:10:34.697Z,33.03
2023-05-11T07:13:01.331Z,32.83
2023-05-11T07:15:28.192Z,30.73
2023-05-11T07:17:55.061Z,28.30
2023-05-11T07:20:21.811Z,30.83
2023-05-11T07:22:48.606Z,33.07
2023-05-11T07:25:15.319Z,28.17
2023-05-11T07:27:42.086Z,28.20
2023-05-11T07:30:09.046Z,28.27
2023-05-11T07:32:35.923Z,28.70
2023-05-11T07:35:02.628Z,31.77
2023-05-11T07:37:29.310Z,34.37
2023-05-11T07:39:55.979Z,31.70
2023-05-11T07:42:23.098Z,32.97
2023-05-11T07:44:49.941Z,36.83
2023-05-11T07:47:18.930Z,36.47
2023-05-11T07:49:47.371Z,40.60
2023-05-11T07:52:17.140Z,39.27
2023-05-11T07:54:44.076Z,44.60
2023-05-11T07:57:14.050Z,50.27
2023-05-11T07:59:41.093Z,53.00
2023-05-11T08:02:11.467Z,42.83
2023-05-11T08:04:40.678Z,45.53
2023-05-11T08:07:07.569Z,44.77
2023-05-11T08:09:34.204Z,42.47
2023-05-11T08:12:02.201Z,38.73
2023-05-11T08:14:28.869Z,35.73
2023-05-11T08:16:55.879Z,34.27
2023-05-11T08:19:22.540Z,42.07
2023-05-11T08:21:49.487Z,41.07
2023-05-11T08:24:16.335Z,42.50
2023-05-11T08:26:43.303Z,35.73
2023-05-11T08:29:12.395Z,37.77
2023-05-11T08:31:40.410Z,34.90
2023-05-11T08:34:18.226Z,32.37
2023-05-11T08:36:46.837Z,39.63
2023-05-11T08:39:13.563Z,37.83
2023-05-11T08:41:40.440Z,53.90
2023-05-11T08:44:08.149Z,82.97
2023-05-11T08:46:38.602Z,42.17
2023-05-11T08:49:07.115Z,35.47
2023-05-11T08:51:33.801Z,31.43
2023-05-11T08:54:00.478Z,32.57
2023-05-11T08:56:29.588Z,34.23
2023-05-11T08:58:57.772Z,29.03
2023-05-11T09:01:28.342Z,28.03
2023-05-11T09:03:56.344Z,26.93
2023-05-11T09:06:25.317Z,29.47
2023-05-11T09:08:52.965Z,30.43
2023-05-11T09:11:20.099Z,25.83
2023-05-11T09:13:47.359Z,20.87
2023-05-11T09:18:50.793Z,23.93
2023-05-11T09:21:17.714Z,22.20
2023-05-11T09:23:44.866Z,24.07
2023-05-11T09:26:15.699Z,20.47
2023-05-11T09:29:02.424Z,27.13
2023-05-11T09:31:45.849Z,23.07
2023-05-11T09:34:17.214Z,22.40
2023-05-11T09:36:46.098Z,24.83
2023-05-11T09:39:15.913Z,24.73
2023-05-11T09:41:43.413Z,26.70
2023-05-11T09:44:15.256Z,29.30
2023-05-11T09:46:44.365Z,27.67
2023-05-11T09:49:12.272Z,31.17
2023-05-11T09:51:40.829Z,27.47
2023-05-11T09:54:18.049Z,32.33
2023-05-11T09:56:49.488Z,35.70
2023-05-11T09:59:18.179Z,37.40
2023-05-11T10:01:45.012Z,33.33
2023-05-11T10:04:22.943Z,33.00
2023-05-11T10:06:55.520Z,33.50
2023-05-11T10:09:27.221Z,35.83
2023-05-11T10:11:55.659Z,36.77
2023-05-11T10:14:22.690Z,35.97
2023-05-11T10:16:50.090Z,32.87
2023-05-11T10:19:17.484Z,32.87
2023-05-11T10:21:44.790Z,31.57
2023-05-11T10:24:11.867Z,28.73
2023-05-11T10:26:38.948Z,30.80
2023-05-11T10:29:05.941Z,26.67
2023-05-11T10:31:33.512Z,24.70
2023-05-11T10:34:01.917Z,23.87
2023-05-11T10:36:29.233Z,25.10
2023-05-11T10:38:56.151Z,27.07
2023-05-11T10:42:00.218Z,24.60
2023-05-11T10:45:04.175Z,25.87
2023-05-11T10:48:06.371Z,23.50
2023-05-11T10:51:00.932Z,25.37
2023-05-11T10:53:49.345Z,26.17
2023-05-11T10:56:31.720Z,31.03
2023-05-11T10:59:10.472Z,26.57
2023-05-11T11:01:39.863Z,26.40
2023-05-11T11:04:08.796Z,29.10
2023-05-11T11:06:40.504Z,34.43
2023-05-11T11:09:13.318Z,29.83
2023-05-11T11:11:50.327Z,30.43
2023-05-11T11:14:18.368Z,32.30
2023-05-11T11:17:14.276Z,31.07
2023-05-11T11:19:41.132Z,28.90
2023-05-11T11:22:37.004Z,28.63
2023-05-11T11:25:08.590Z,33.77
2023-05-11T11:27:41.466Z,31.30
2023-05-11T11:30:18.332Z,33.33
2023-05-11T11:32:46.588Z,36.10
2023-05-11T11:35:47.355Z,33.67
2023-05-11T11:38:20.531Z,40.70
2023-05-11T11:40:51.673Z,40.97
2023-05-11T11:43:24.695Z,27.07
2023-05-11T11:46:01.603Z,48.77
2023-05-11T11:48:40.513Z,35.13
2023-05-11T11:51:08.998Z,37.20
2023-05-11T11:53:43.674Z,34.30
2023-05-11T11:56:18.697Z,46.80
2023-05-11T11:58:45.281Z,35.20
2023-05-11T12:01:12.580Z,34.13
2023-05-11T12:03:41.822Z,36.80
2023-05-11T12:06:10.118Z,34.37
2023-05-11T12:08:38.887Z,35.73
2023-05-11T12:11:07.212Z,32.80
2023-05-11T12:13:35.397Z,29.80
2023-05-11T12:16:16.307Z,33.37
2023-05-11T12:18:52.832Z,31.97
2023-05-11T12:21:21.212Z,34.73
2023-05-11T12:23:56.301Z,35.77
2023-05-11T12:26:24.713Z,35.70
2023-05-11T12:29:05.962Z,34.83
2023-05-11T12:31:40.900Z,31.37
2023-05-11T12:34:15.180Z,34.00
2023-05-11T12:36:42.661Z,35.63
2023-05-11T12:39:17.637Z,31.33
2023-05-11T12:41:45.113Z,32.87
2023-05-11T12:44:12.064Z,32.50
2023-05-11T12:46:39.223Z,36.13
2023-05-11T12:49:06.593Z,34.10
2023-05-11T12:52:01.300Z,37.10
2023-05-11T12:54:38.367Z,32.67
2023-05-11T12:57:06.885Z,32.97
2023-05-11T12:59:39.399Z,37.97
2023-05-11T13:02:07.020Z,39.00
2023-05-11T13:04:33.968Z,42.72
2023-05-11T13:07:00.809Z,38.10
2023-05-11T13:09:28.144Z,37.23
2023-05-11T13:12:32.304Z,39.03
2023-05-11T13:15:07.864Z,32.97
2023-05-11T13:17:37.367Z,39.83
2023-05-11T13:20:27.946Z,38.00
2023-05-11T13:23:10.849Z,35.30
2023-05-11T13:25:46.563Z,34.97
2023-05-11T13:28:18.495Z,37.40
2023-05-11T13:30:46.681Z,37.17
2023-05-11T13:33:13.593Z,33.47
2023-05-11T13:35:41.659Z,39.35
2023-05-11T13:38:12.224Z,41.17
2023-05-11T13:40:39.211Z,35.23
2023-05-11T13:43:07.566Z,35.35
2023-05-11T13:45:36.456Z,38.17
2023-05-11T13:48:03.576Z,36.38
2023-05-11T13:50:30.795Z,37.13
2023-05-11T13:52:57.516Z,35.25
2023-05-11T13:55:25.247Z,38.50
2023-05-11T13:57:52.039Z,36.53
2023-05-11T14:00:19.708Z,39.85
2023-05-11T14:02:48.306Z,35.05
2023-05-11T14:05:15.235Z,34.57
2023-05-11T14:07:46.953Z,31.35
2023-05-11T14:10:15.623Z,37.40
2023-05-11T14:12:42.556Z,31.73
2023-05-11T14:15:09.790Z,31.33
2023-05-11T14:17:36.736Z,32.92
2023-05-11T14:20:04.359Z,32.08
2023-05-11T14:22:31.265Z,35.60
2023-05-11T14:24:58.025Z,32.88
2023-05-11T14:27:24.705Z,29.77
2023-05-11T14:29:52.178Z,30.60
2023-05-11T14:32:19.603Z,30.70
2023-05-11T14:34:46.758Z,28.75
2023-05-11T14:37:13.472Z,29.05
2023-05-11T14:39:41.365Z,26.88
2023-05-11T14:42:08.405Z,34.65
2023-05-11T14:44:35.197Z,31.35
2023-05-11T14:47:02.050Z,29.10
2023-05-11T14:49:28.864Z,29.42
2023-05-11T14:51:56.622Z,27.45
2023-05-11T14:54:23.447Z,29.35
2023-05-11T14:56:53.930Z,28.48
2023-05-11T14:59:21.946Z,25.73
2023-05-11T15:01:49.624Z,25.63
2023-05-11T15:04:16.942Z,23.73
2023-05-11T15:06:43.996Z,23.17
2023-05-11T15:09:10.821Z,21.77
2023-05-11T15:11:37.549Z,22.25
2023-05-11T15:14:05.850Z,24.23
2023-05-11T15:16:33.111Z,24.52
2023-05-11T15:19:00.111Z,26.70
2023-05-11T15:21:27.418Z,23.42
2023-05-11T15:23:54.348Z,29.92
2023-05-11T15:26:22.311Z,25.98
2023-05-11T15:28:49.264Z,29.08
2023-05-11T15:31:16.167Z,34.30
2023-05-11T15:33:43.344Z,28.55
2023-05-11T15:36:14.354Z,34.87
2023-05-11T15:38:42.568Z,37.47
2023-05-11T15:41:09.475Z,34.00
2023-05-11T15:43:36.192Z,35.07
2023-05-11T15:46:03.881Z,45.40
2023-05-11T15:48:30.834Z,35.90
2023-05-11T15:50:59.909Z,36.87
2023-05-11T15:53:27.056Z,39.70
2023-05-11T15:55:55.546Z,38.63
2023-05-11T15:58:22.553Z,32.20
2023-05-11T16:00:49.400Z,33.70
2023-05-11T16:03:16.570Z,31.57
2023-05-11T16:05:44.466Z,33.50
2023-05-11T16:08:11.292Z,32.83
2023-05-11T16:10:38.049Z,32.60
2023-05-11T16:13:04.785Z,34.67
2023-05-11T16:15:31.958Z,35.50
2023-05-11T16:17:58.820Z,34.67
2023-05-11T16:20:25.793Z,34.87
2023-05-11T16:22:52.572Z,33.57
2023-05-11T16:25:19.262Z,33.80
2023-05-11T16:27:45.873Z,33.70
2023-05-11T16:30:23.027Z,34.47
2023-05-11T16:32:51.959Z,35.93
2023-05-11T16:35:18.773Z,39.27
2023-05-11T16:37:46.717Z,35.57
2023-05-11T16:40:13.598Z,33.63
2023-05-11T16:42:40.380Z,33.43
2023-05-11T16:45:07.426Z,37.50
2023-05-11T16:47:34.214Z,40.70
2023-05-11T16:50:00.950Z,44.67
2023-05-11T16:52:27.750Z,35.43
2023-05-11T16:54:58.984Z,36.43
2023-05-11T16:57:26.052Z,40.20
2023-05-11T16:59:52.746Z,41.13
2023-05-11T17:02:19.963Z,44.03
2023-05-11T17:04:46.974Z,39.20
2023-05-11T17:07:16.076Z,37.90
2023-05-11T17:09:43.092Z,32.60
2023-05-11T17:12:13.170Z,32.93
2023-05-11T17:14:39.848Z,31.52
2023-05-11T17:17:08.122Z,32.53
2023-05-11T17:19:34.849Z,33.90
2023-05-11T17:22:01.589Z,33.73
2023-05-11T17:24:28.658Z,29.87
2023-05-11T17:26:55.540Z,31.63
2023-05-11T17:29:24.430Z,32.37
2023-05-11T17:31:51.863Z,31.37
2023-05-11T17:34:19.742Z,32.15
2023-05-11T17:36:48.416Z,29.67
2023-05-11T17:39:16.442Z,27.90
2023-05-11T17:41:43.569Z,33.40
2023-05-11T17:44:10.314Z,31.47
2023-05-11T17:46:37.015Z,34.93
2023-05-11T17:49:04.141Z,31.00
2023-05-11T17:51:31.286Z,32.90
2023-05-11T17:53:57.915Z,29.17
2023-05-11T17:56:24.620Z,31.57
2023-05-11T17:58:57.413Z,26.70
2023-05-11T18:01:24.230Z,30.83
2023-05-11T18:03:51.037Z,25.37
2023-05-11T18:06:17.798Z,25.93
2023-05-11T18:08:45.018Z,28.10
2023-05-11T18:11:12.842Z,28.50
2023-05-11T18:13:40.446Z,27.50
2023-05-11T18:16:07.515Z,26.87
2023-05-11T18:18:34.536Z,23.57
2023-05-11T18:21:05.744Z,24.10
2023-05-11T18:23:32.875Z,26.17
2023-05-11T18:25:59.632Z,22.40
2023-05-11T18:28:26.313Z,24.43
2023-05-11T18:30:54.143Z,25.80
2023-05-11T18:33:21.086Z,20.33
2023-05-11T18:35:48.104Z,22.33
2023-05-11T18:38:14.744Z,21.83
2023-05-11T18:40:41.530Z,22.03
2023-05-11T18:43:08.629Z,22.17
2023-05-11T18:45:35.308Z,20.47
2023-05-11T18:48:02.899Z,20.87
2023-05-11T18:50:30.194Z,22.97
2023-05-11T18:52:57.792Z,25.47
2023-05-11T18:55:25.314Z,25.60
2023-05-11T18:57:52.797Z,20.67
2023-05-11T19:00:20.414Z,23.53
2023-05-11T19:02:48.246Z,17.83
2023-05-11T19:05:15.168Z,15.63
2023-05-11T19:07:42.090Z,14.63
2023-05-11T19:10:09.208Z,14.70
2023-05-11T19:12:35.897Z,15.40
2023-05-11T19:15:02.581Z,11.83
2023-05-11T19:17:29.266Z,12.37
2023-05-11T19:19:59.649Z,16.27
2023-05-11T19:22:26.466Z,13.47
2023-05-11T19:24:53.188Z,13.20
2023-05-11T19:27:20.054Z,13.43
2023-05-11T19:29:50.145Z,14.63
2023-05-11T19:32:18.938Z,14.60
2023-05-11T19:34:45.829Z,14.20
2023-05-11T19:37:12.528Z,15.03
2023-05-11T19:39:39.223Z,17.40
2023-05-11T19:42:05.992Z,11.70
2023-05-11T19:44:33.230Z,12.30
2023-05-11T19:46:59.991Z,14.07
2023-05-11T19:49:27.987Z,15.00
2023-05-11T19:51:55.134Z,11.47
2023-05-11T19:54:22.348Z,12.57
2023-05-11T19:56:49.069Z,13.13
2023-05-11T19:59:15.748Z,12.73
2023-05-11T20:01:42.458Z,14.60
2023-05-11T20:04:09.391Z,11.23
2023-05-11T20:06:36.078Z,13.73
2023-05-11T20:09:02.775Z,12.80
2023-05-11T20:11:31.130Z,13.27
2023-05-11T20:14:00.730Z,13.20
2023-05-11T20:16:30.769Z,10.13
2023-05-11T20:18:59.260Z,13.83
2023-05-11T20:21:26.518Z,10.17
2023-05-11T20:23:53.478Z,15.30
2023-05-11T20:26:20.227Z,11.23
2023-05-11T20:28:46.881Z,9.53
2023-05-11T20:31:13.569Z,10.37
2023-05-11T20:36:10.442Z,10.03
2023-05-11T20:38:37.106Z,12.97
2023-05-11T20:41:03.763Z,13.23
2023-05-11T20:43:30.625Z,7.90
2023-05-11T20:46:03.376Z,12.77
2023-05-11T20:48:39.165Z,8.50
2023-05-11T20:51:07.735Z,10.10
2023-05-11T20:53:34.531Z,12.83
2023-05-11T20:56:02.796Z,9.63
2023-05-11T20:58:30.951Z,8.23
2023-05-11T21:00:57.966Z,12.33
2023-05-11T21:03:26.727Z,6.83
2023-05-11T21:05:53.820Z,9.27
2023-05-11T21:08:20.749Z,6.80
2023-05-11T21:10:47.525Z,8.07
2023-05-11T21:13:14.292Z,6.27
2023-05-11T21:15:41.323Z,12.90
2023-05-11T21:18:08.121Z,7.87
2023-05-11T21:20:34.848Z,10.60
2023-05-11T21:23:01.970Z,8.97
2023-05-11T21:25:28.631Z,12.60
2023-05-11T21:27:55.345Z,8.53
2023-05-11T21:30:24.708Z,10.17
2023-05-11T21:32:51.478Z,10.40
2023-05-11T21:35:18.677Z,10.40
2023-05-11T21:37:49.491Z,8.97
2023-05-11T21:40:17.946Z,8.63
2023-05-11T21:42:45.191Z,9.13
2023-05-11T21:45:12.139Z,9.43
2023-05-11T21:47:39.443Z,6.07
2023-05-11T21:50:08.478Z,14.67
2023-05-11T21:52:35.275Z,11.60
2023-05-11T21:55:02.004Z,8.23
2023-05-11T21:57:29.162Z,9.07
2023-05-11T21:59:55.802Z,10.23
2023-05-11T22:02:23.021Z,9.70
2023-05-11T22:04:49.900Z,12.73
2023-05-11T22:07:16.581Z,9.93
2023-05-11T22:09:43.461Z,9.10
2023-05-11T22:12:10.186Z,12.47
2023-05-11T22:14:36.770Z,13.57
2023-05-11T22:17:03.559Z,9.50
2023-05-11T22:19:30.311Z,8.50
2023-05-11T22:21:57.042Z,7.80
2023-05-11T22:24:26.924Z,9.17
2023-05-11T22:26:54.231Z,12.30
2023-05-11T22:29:22.119Z,7.43
2023-05-11T22:31:51.581Z,10.50
2023-05-11T22:34:20.974Z,8.43
2023-05-11T22:36:47.608Z,8.37
2023-05-11T22:39:14.393Z,8.73
2023-05-11T22:41:41.129Z,6.17
2023-05-11T22:44:08.397Z,11.57
2023-05-11T22:46:35.104Z,6.00
2023-05-11T22:49:01.935Z,7.57
2023-05-11T22:51:28.692Z,6.67
2023-05-11T22:53:55.392Z,7.50
2023-05-11T22:56:22.273Z,5.73
2023-05-11T22:58:49.110Z,10.67
2023-05-11T23:01:15.845Z,7.87
2023-05-11T23:03:42.803Z,8.40
2023-05-11T23:06:09.615Z,9.00
2023-05-11T23:08:36.375Z,7.50
2023-05-11T23:11:03.313Z,8.13
2023-05-11T23:13:29.995Z,7.17
2023-05-11T23:15:56.640Z,6.73
2023-05-11T23:18:23.470Z,6.10
2023-05-11T23:20:58.174Z,7.13
2023-05-11T23:23:26.785Z,7.10
2023-05-11T23:25:53.825Z,10.93
2023-05-11T23:28:20.778Z,5.97
2023-05-11T23:30:47.496Z,7.63
2023-05-11T23:33:15.061Z,5.93
2023-05-11T23:35:41.842Z,5.03
2023-05-11T23:38:08.538Z,6.17
2023-05-11T23:40:35.230Z,5.80
2023-05-11T23:43:02.029Z,8.77
2023-05-11T23:45:28.759Z,8.33
2023-05-11T23:47:55.453Z,11.60
2023-05-11T23:50:22.201Z,5.33
2023-05-11T23:52:49.664Z,6.97
2023-05-11T23:55:16.334Z,7.43
2023-05-11T23:57:43.788Z,9.60
